Time;durP1;ratioP1;P1;durP2;ratioP2;P2;SDS_P1;SDS_P2;PMS_P1;PMS_P2;Temp;Humidity;BMP_temperature;BMP_pressure;BME280_temperature;BME280_humidity;BME280_pressure;Samples;Min_cycle;Max_cycle;Signal;HPM_P1;HPM_P2
2021/07/04 00:01:57;;;;;;;1.90;1.80;;;22.50;46.90;;;;;;5126739;27;20109;-40
2021/07/04 00:04:24;;;;;;;2.30;2.10;;;22.50;47.30;;;;;;5126830;28;20368;-40
2021/07/04 00:06:50;;;;;;;2.30;2.10;;;22.50;48.40;;;;;;5126183;28;20077;-41
2021/07/04 00:09:16;;;;;;;2.45;2.25;;;22.50;50.00;;;;;;5126445;28;20031;-41
2021/07/04 00:11:42;;;;;;;2.47;2.25;;;22.50;49.20;;;;;;5126411;28;20510;-41
2021/07/04 00:14:09;;;;;;;2.42;2.22;;;22.50;49.40;;;;;;5126516;28;20028;-41
2021/07/04 00:16:35;;;;;;;2.67;2.20;;;22.40;50.40;;;;;;5126153;28;20548;-42
2021/07/04 00:19:01;;;;;;;2.30;2.10;;;22.40;51.60;;;;;;5124928;28;20047;-41
2021/07/04 00:21:27;;;;;;;2.33;2.13;;;22.40;52.40;;;;;;5124863;28;20023;-42
2021/07/04 00:23:54;;;;;;;2.40;2.20;;;22.40;53.50;;;;;;5126034;28;20770;-42
2021/07/04 00:26:20;;;;;;;2.10;1.90;;;22.40;54.10;;;;;;5125879;28;20035;-41
2021/07/04 00:28:46;;;;;;;2.60;2.40;;;22.40;54.50;;;;;;5126137;28;20096;-42
2021/07/04 00:31:12;;;;;;;2.47;2.28;;;22.40;55.60;;;;;;5124609;28;20047;-42
2021/07/04 00:33:38;;;;;;;2.45;2.25;;;22.40;56.50;;;;;;5126259;28;20024;-42
2021/07/04 00:36:05;;;;;;;2.35;2.15;;;22.40;57.10;;;;;;5125918;28;20032;-41
2021/07/04 00:38:32;;;;;;;2.40;2.20;;;22.40;57.80;;;;;;5125568;28;20024;-41
2021/07/04 00:40:58;;;;;;;2.40;2.20;;;22.40;57.80;;;;;;5125955;28;20048;-42
2021/07/04 00:43:24;;;;;;;2.45;2.25;;;22.40;58.40;;;;;;5126031;28;20034;-41
2021/07/04 00:45:50;;;;;;;2.28;2.08;;;22.40;58.60;;;;;;5126039;28;20035;-41
2021/07/04 00:48:16;;;;;;;1.88;1.77;;;22.40;58.90;;;;;;5124254;28;20032;-42
2021/07/04 00:50:43;;;;;;;2.35;2.15;;;22.40;58.90;;;;;;5125556;28;20464;-41
2021/07/04 00:53:09;;;;;;;2.42;2.22;;;22.40;59.00;;;;;;5123833;28;20547;-42
2021/07/04 00:55:35;;;;;;;2.40;2.20;;;22.40;59.10;;;;;;5125556;27;20028;-42
2021/07/04 00:58:02;;;;;;;2.43;2.23;;;22.40;59.30;;;;;;5124063;28;20023;-41
2021/07/04 01:00:29;;;;;;;2.42;2.22;;;22.40;59.50;;;;;;5125757;28;20053;-42
2021/07/04 01:02:55;;;;;;;1.98;1.88;;;22.50;59.50;;;;;;5125566;28;20032;-42
2021/07/04 01:05:27;;;;;;;2.50;2.30;;;22.50;59.60;;;;;;5124909;28;20055;-42
2021/07/04 01:07:53;;;;;;;2.30;2.10;;;22.50;59.50;;;;;;5121518;28;20038;-41
2021/07/04 01:10:21;;;;;;;2.33;2.13;;;22.50;59.80;;;;;;5123493;28;20055;-41
2021/07/04 01:12:49;;;;;;;2.28;2.08;;;22.50;59.80;;;;;;5125527;28;20023;-41
2021/07/04 01:15:17;;;;;;;2.38;2.17;;;22.50;60.00;;;;;;5125258;28;20051;-41
2021/07/04 01:17:46;;;;;;;2.30;2.10;;;22.50;60.20;;;;;;5124818;28;20048;-41
2021/07/04 01:20:13;;;;;;;2.38;2.17;;;22.50;60.20;;;;;;5123798;28;20070;-41
2021/07/04 01:22:40;;;;;;;2.45;2.25;;;22.50;60.50;;;;;;5124844;28;20028;-40
2021/07/04 01:25:07;;;;;;;2.40;2.20;;;22.50;60.60;;;;;;5123626;28;20061;-41
2021/07/04 01:27:34;;;;;;;2.35;2.15;;;22.50;60.60;;;;;;5123368;28;20020;-41
2021/07/04 01:30:00;;;;;;;2.38;2.17;;;22.50;61.40;;;;;;5125100;28;20043;-41
2021/07/04 01:32:26;;;;;;;2.72;2.33;;;22.50;61.50;;;;;;5123891;28;20024;-42
2021/07/04 01:34:52;;;;;;;2.10;1.90;;;22.50;61.60;;;;;;5124985;28;20083;-41
2021/07/04 01:37:18;;;;;;;2.40;2.20;;;22.50;61.90;;;;;;5124599;28;20015;-41
2021/07/04 01:39:45;;;;;;;2.92;2.22;;;22.50;61.90;;;;;;5124433;28;20322;-40
2021/07/04 01:42:11;;;;;;;2.10;2.00;;;22.50;62.30;;;;;;5124877;28;20028;-42
2021/07/04 01:44:37;;;;;;;2.00;1.90;;;22.50;62.40;;;;;;5124716;28;20058;-42
2021/07/04 01:47:04;;;;;;;2.30;2.10;;;22.50;62.80;;;;;;5124752;28;20015;-41
2021/07/04 01:49:30;;;;;;;2.25;2.05;;;22.50;62.70;;;;;;5122955;28;20032;-41
2021/07/04 01:51:56;;;;;;;2.05;1.95;;;22.50;62.90;;;;;;5124574;28;20068;-42
2021/07/04 01:54:22;;;;;;;2.20;2.00;;;22.40;62.90;;;;;;5124316;28;20028;-42
2021/07/04 01:56:48;;;;;;;2.40;2.20;;;22.50;62.80;;;;;;5123252;28;20027;-42
2021/07/04 01:59:15;;;;;;;1.92;1.83;;;22.50;62.80;;;;;;5124359;28;20027;-41
2021/07/04 02:01:41;;;;;;;2.20;2.00;;;22.50;62.70;;;;;;5124340;28;20068;-42
2021/07/04 02:04:07;;;;;;;1.83;1.73;;;22.50;62.70;;;;;;5124348;28;20023;-41
2021/07/04 02:06:36;;;;;;;2.10;2.00;;;22.50;62.90;;;;;;5122354;28;20038;-41
2021/07/04 02:09:02;;;;;;;2.33;2.13;;;22.50;62.90;;;;;;5123844;28;20077;-42
2021/07/04 02:11:28;;;;;;;2.53;2.08;;;22.50;63.00;;;;;;5124011;28;20677;-41
2021/07/04 02:13:54;;;;;;;2.45;2.20;;;22.50;63.00;;;;;;5123582;28;20027;-42
2021/07/04 02:16:21;;;;;;;2.10;2.00;;;22.50;63.10;;;;;;5122633;28;20043;-41
2021/07/04 02:18:51;;;;;;;2.08;1.88;;;22.50;63.50;;;;;;5123090;28;20477;-43
2021/07/04 02:21:17;;;;;;;2.28;2.10;;;22.50;63.30;;;;;;5123794;28;20024;-43
2021/07/04 02:23:46;;;;;;;2.15;1.95;;;22.50;63.70;;;;;;5123232;28;20044;-41
2021/07/04 02:26:12;;;;;;;2.13;1.90;;;22.50;63.90;;;;;;5123692;28;20045;-41
2021/07/04 02:28:39;;;;;;;3.25;2.13;;;22.40;63.70;;;;;;5123792;28;20030;-41
2021/07/04 02:31:05;;;;;;;1.98;1.88;;;22.40;64.00;;;;;;5123749;28;20036;-42
2021/07/04 02:33:31;;;;;;;3.65;2.00;;;22.40;64.30;;;;;;5123475;28;20016;-42
2021/07/04 02:35:58;;;;;;;1.80;1.70;;;22.40;64.30;;;;;;5123615;28;20039;-41
2021/07/04 02:38:24;;;;;;;2.70;1.60;;;22.40;64.40;;;;;;5123683;28;20472;-42
2021/07/04 02:40:51;;;;;;;4.20;2.13;;;22.40;64.20;;;;;;5123453;28;20043;-42
2021/07/04 02:43:23;;;;;;;1.90;1.80;;;22.40;64.40;;;;;;5123580;27;20028;-42
2021/07/04 02:45:49;;;;;;;1.95;1.77;;;22.40;64.30;;;;;;5123588;28;20035;-43
2021/07/04 02:48:15;;;;;;;2.22;2.03;;;22.40;64.50;;;;;;5123646;28;20019;-41
2021/07/04 02:50:42;;;;;;;1.90;1.80;;;22.40;64.50;;;;;;5123164;28;20036;-41
2021/07/04 02:53:09;;;;;;;2.07;1.90;;;22.30;64.20;;;;;;5123663;28;20024;-42
2021/07/04 02:55:36;;;;;;;1.98;1.65;;;22.40;64.30;;;;;;5123098;28;20264;-44
2021/07/04 02:58:02;;;;;;;1.75;1.65;;;22.40;64.40;;;;;;5123480;28;20059;-42
2021/07/04 03:00:29;;;;;;;2.17;1.95;;;22.40;64.10;;;;;;5123612;28;20056;-41
2021/07/04 03:02:55;;;;;;;2.15;1.95;;;22.40;64.30;;;;;;5121721;28;20032;-41
2021/07/04 03:05:21;;;;;;;2.67;2.00;;;22.40;64.40;;;;;;5122902;28;20034;-42
2021/07/04 03:07:48;;;;;;;1.98;1.70;;;22.40;64.40;;;;;;5123102;28;20024;-43
2021/07/04 03:10:18;;;;;;;2.30;2.10;;;22.40;64.20;;;;;;5122899;28;20590;-43
2021/07/04 03:12:44;;;;;;;2.20;2.00;;;22.40;64.30;;;;;;5123203;28;20111;-43
2021/07/04 03:15:11;;;;;;;2.17;2.03;;;22.30;64.50;;;;;;5123095;28;20123;-42
2021/07/04 03:17:38;;;;;;;2.40;2.20;;;22.30;64.80;;;;;;5123118;28;20039;-43
2021/07/04 03:20:09;;;;;;;2.20;2.00;;;22.30;64.80;;;;;;5123094;28;20034;-42
2021/07/04 03:22:35;;;;;;;2.17;1.98;;;22.30;65.10;;;;;;5123039;28;20036;-41
2021/07/04 03:25:02;;;;;;;2.60;2.40;;;22.30;65.00;;;;;;5122787;28;20030;-43
2021/07/04 03:27:28;;;;;;;2.20;2.00;;;22.30;65.10;;;;;;5123217;28;20049;-42
2021/07/04 03:29:54;;;;;;;2.28;2.08;;;22.30;65.10;;;;;;5125215;28;20035;-43
2021/07/04 03:32:20;;;;;;;2.13;1.70;;;22.30;65.20;;;;;;5127411;28;20092;-42
2021/07/04 03:34:48;;;;;;;2.38;2.00;;;22.30;65.30;;;;;;5127103;28;20089;-42
2021/07/04 03:37:15;;;;;;;2.15;1.95;;;22.30;65.30;;;;;;5127094;28;20165;-42
2021/07/04 03:39:41;;;;;;;2.25;2.05;;;22.30;65.30;;;;;;5126975;28;20024;-41
2021/07/04 03:42:10;;;;;;;2.25;2.05;;;22.30;65.30;;;;;;5126846;28;20028;-41
2021/07/04 03:44:36;;;;;;;2.40;2.20;;;22.20;65.30;;;;;;5126927;28;20426;-41
2021/07/04 03:47:03;;;;;;;2.03;1.93;;;22.20;65.30;;;;;;5127206;28;20032;-42
2021/07/04 03:49:29;;;;;;;1.98;1.88;;;22.20;65.30;;;;;;5126711;28;20777;-42
2021/07/04 03:51:55;;;;;;;2.42;2.17;;;22.20;65.20;;;;;;5126822;28;20103;-42
2021/07/04 03:54:21;;;;;;;2.15;1.95;;;22.20;65.30;;;;;;5126642;28;20019;-41
2021/07/04 03:56:47;;;;;;;2.33;2.13;;;22.20;65.30;;;;;;5125953;28;20663;-42
2021/07/04 03:59:13;;;;;;;2.13;2.00;;;22.20;65.60;;;;;;5126794;28;20028;-41
2021/07/04 04:01:40;;;;;;;2.30;2.10;;;22.20;65.30;;;;;;5126707;28;20054;-42
2021/07/04 04:04:06;;;;;;;2.20;2.00;;;22.20;65.40;;;;;;5126884;28;20512;-41
2021/07/04 04:06:32;;;;;;;1.90;1.80;;;22.20;65.70;;;;;;5126056;28;20035;-41
2021/07/04 04:08:58;;;;;;;3.20;2.08;;;22.20;65.60;;;;;;5126384;28;20031;-41
2021/07/04 04:11:24;;;;;;;2.60;2.40;;;22.20;65.70;;;;;;5126245;28;20039;-41
2021/07/04 04:13:51;;;;;;;2.33;2.13;;;22.20;65.90;;;;;;5126690;28;20077;-40
2021/07/04 04:16:17;;;;;;;3.65;2.40;;;22.10;65.90;;;;;;5124588;28;20032;-40
2021/07/04 04:18:44;;;;;;;2.53;2.33;;;22.10;66.00;;;;;;5126098;28;20047;-41
2021/07/04 04:21:10;;;;;;;2.50;2.30;;;22.10;66.00;;;;;;5126267;28;20047;-41
2021/07/04 04:23:36;;;;;;;2.83;2.30;;;22.10;66.10;;;;;;5126254;28;20023;-41
2021/07/04 04:26:02;;;;;;;2.90;2.65;;;22.10;65.90;;;;;;5124519;28;20040;-42
2021/07/04 04:28:30;;;;;;;2.83;2.63;;;22.10;66.10;;;;;;5126274;27;20034;-40
2021/07/04 04:30:56;;;;;;;2.45;2.20;;;22.10;66.10;;;;;;5125736;28;20036;-41
2021/07/04 04:33:23;;;;;;;2.42;2.22;;;22.10;66.10;;;;;;5126218;28;20049;-42
2021/07/04 04:35:49;;;;;;;2.88;2.30;;;22.10;66.30;;;;;;5125851;28;20025;-42
2021/07/04 04:38:15;;;;;;;2.85;2.65;;;22.00;66.20;;;;;;5126017;28;20026;-41
2021/07/04 04:40:41;;;;;;;2.55;2.35;;;22.00;66.30;;;;;;5125127;28;20115;-41
2021/07/04 04:43:07;;;;;;;2.60;2.40;;;22.00;66.40;;;;;;5126083;28;20031;-42
2021/07/04 04:45:34;;;;;;;2.78;2.58;;;22.00;66.20;;;;;;5124308;28;20034;-41
2021/07/04 04:48:00;;;;;;;2.90;2.60;;;22.00;66.30;;;;;;5125691;28;20054;-41
2021/07/04 04:50:26;;;;;;;2.88;2.67;;;22.00;66.30;;;;;;5125871;28;20080;-42
2021/07/04 04:52:53;;;;;;;3.60;2.58;;;22.00;66.20;;;;;;5125833;28;20019;-42
2021/07/04 04:55:19;;;;;;;2.50;2.30;;;22.00;66.50;;;;;;5125595;28;20907;-41
2021/07/04 04:57:45;;;;;;;3.30;3.00;;;22.00;66.00;;;;;;5125580;28;20050;-41
2021/07/04 05:00:13;;;;;;;3.13;2.85;;;22.00;66.20;;;;;;5125589;28;20019;-41
2021/07/04 05:02:39;;;;;;;2.70;2.50;;;22.00;66.10;;;;;;5125688;28;20024;-42
2021/07/04 05:05:06;;;;;;;3.28;2.97;;;22.00;66.30;;;;;;5125429;28;20024;-42
2021/07/04 05:07:33;;;;;;;3.10;2.80;;;22.00;66.50;;;;;;5125186;28;20038;-42
2021/07/04 05:09:59;;;;;;;3.03;2.80;;;22.00;66.90;;;;;;5125489;28;20073;-41
2021/07/04 05:12:26;;;;;;;3.03;2.72;;;21.90;67.00;;;;;;5125298;28;20043;-41
2021/07/04 05:14:53;;;;;;;3.13;2.83;;;21.90;67.00;;;;;;5125497;28;20024;-42
2021/07/04 05:17:20;;;;;;;2.88;2.67;;;21.90;66.90;;;;;;5124858;28;20061;-42
2021/07/04 05:19:48;;;;;;;3.60;3.30;;;21.90;67.10;;;;;;5125336;28;20028;-41
2021/07/04 05:22:14;;;;;;;2.88;2.67;;;21.90;67.70;;;;;;5125429;28;20101;-41
2021/07/04 05:24:40;;;;;;;5.72;3.10;;;21.90;67.10;;;;;;5125257;28;20020;-41
2021/07/04 05:27:06;;;;;;;2.95;2.75;;;21.90;67.10;;;;;;5124758;28;20104;-41
2021/07/04 05:29:32;;;;;;;3.35;3.05;;;21.90;67.10;;;;;;5123847;28;20034;-42
2021/07/04 05:31:59;;;;;;;3.58;3.28;;;21.90;67.10;;;;;;5124996;28;20051;-41
2021/07/04 05:34:27;;;;;;;3.17;2.83;;;21.80;67.10;;;;;;5125204;28;20028;-40
2021/07/04 05:36:53;;;;;;;3.08;2.78;;;21.80;66.90;;;;;;5124684;28;20060;-41
2021/07/04 05:39:19;;;;;;;3.92;3.20;;;21.80;67.20;;;;;;5124964;28;20023;-41
2021/07/04 05:41:45;;;;;;;3.23;2.93;;;21.80;67.30;;;;;;5124791;28;20024;-41
2021/07/04 05:44:12;;;;;;;3.25;3.00;;;21.80;67.00;;;;;;5124668;28;20024;-41
2021/07/04 05:46:38;;;;;;;3.13;2.83;;;21.80;66.80;;;;;;5124587;27;20059;-41
2021/07/04 05:49:05;;;;;;;3.20;2.90;;;21.80;66.60;;;;;;5124969;28;20049;-41
2021/07/04 05:51:31;;;;;;;;;;;21.80;66.70;;;;;;5124888;28;20043;-42
2021/07/04 05:53:57;;;;;;;3.03;2.72;;;21.80;66.60;;;;;;5124607;28;20506;-42
2021/07/04 05:56:23;;;;;;;3.17;2.88;;;21.80;66.90;;;;;;5124317;28;20030;-41
2021/07/04 05:58:50;;;;;;;3.38;3.08;;;21.80;66.70;;;;;;5124530;28;20031;-42
2021/07/04 06:01:16;;;;;;;3.85;3.22;;;21.80;67.10;;;;;;5124701;28;20706;-42
2021/07/04 06:03:42;;;;;;;3.47;3.17;;;21.80;67.20;;;;;;5124512;28;20042;-42
2021/07/04 06:06:08;;;;;;;3.30;3.00;;;21.80;67.40;;;;;;5124071;28;20031;-40
2021/07/04 06:08:34;;;;;;;3.67;3.25;;;21.80;67.30;;;;;;5124004;28;20233;-41
2021/07/04 06:11:00;;;;;;;3.38;3.08;;;21.70;67.30;;;;;;5123803;28;20040;-41
2021/07/04 06:13:27;;;;;;;3.30;3.00;;;21.70;67.30;;;;;;5123902;28;20022;-41
2021/07/04 06:15:53;;;;;;;3.50;3.20;;;21.70;67.40;;;;;;5124401;28;20023;-42
2021/07/04 06:18:19;;;;;;;4.63;3.45;;;21.70;67.20;;;;;;5123822;28;20071;-41
2021/07/04 06:20:45;;;;;;;3.50;3.20;;;21.70;67.40;;;;;;5124516;28;20058;-41
2021/07/04 06:23:11;;;;;;;3.53;3.22;;;21.70;67.60;;;;;;5124072;28;20024;-42
2021/07/04 06:25:38;;;;;;;4.13;3.60;;;21.70;67.60;;;;;;5124041;28;20078;-41
2021/07/04 06:28:04;;;;;;;3.60;3.30;;;21.70;67.60;;;;;;5123720;28;20016;-42
2021/07/04 06:30:30;;;;;;;3.88;3.47;;;21.70;67.20;;;;;;5123964;28;20083;-42
2021/07/04 06:32:57;;;;;;;3.60;3.30;;;21.70;67.30;;;;;;5123989;28;20028;-41
2021/07/04 06:35:23;;;;;;;3.88;3.53;;;21.70;67.10;;;;;;5123953;28;20019;-41
2021/07/04 06:37:50;;;;;;;3.85;3.45;;;21.70;67.20;;;;;;5123607;28;20024;-41
2021/07/04 06:40:16;;;;;;;3.70;3.40;;;21.70;67.10;;;;;;5124037;28;20016;-41
2021/07/04 06:42:42;;;;;;;3.70;3.40;;;21.70;67.20;;;;;;5122260;28;20030;-42
2021/07/04 06:45:12;;;;;;;3.88;3.30;;;21.60;67.20;;;;;;5123943;28;20024;-41
2021/07/04 06:47:39;;;;;;;5.55;3.63;;;21.60;67.20;;;;;;5123523;28;20047;-41
2021/07/04 06:50:06;;;;;;;3.97;3.58;;;21.60;67.20;;;;;;5123649;28;20063;-41
2021/07/04 06:52:32;;;;;;;4.22;3.83;;;21.60;67.30;;;;;;5123638;28;20035;-42
2021/07/04 06:54:58;;;;;;;4.43;3.83;;;21.60;67.30;;;;;;5123129;27;20030;-41
2021/07/04 06:57:27;;;;;;;3.95;3.55;;;21.60;67.40;;;;;;5116994;28;20036;-41
2021/07/04 06:59:57;;;;;;;4.15;3.75;;;21.60;67.40;;;;;;5116752;28;20072;-41
2021/07/04 07:02:24;;;;;;;4.30;3.90;;;21.60;67.50;;;;;;5116117;28;20035;-41
2021/07/04 07:04:50;;;;;;;;;;;21.60;67.50;;;;;;5117708;28;20087;-40
2021/07/04 07:07:17;;;;;;;4.28;3.88;;;21.60;67.60;;;;;;5116787;28;19903;-40
2021/07/04 07:09:43;;;;;;;3.97;3.67;;;21.50;67.60;;;;;;5117225;28;20024;-42
2021/07/04 07:12:09;;;;;;;4.07;3.72;;;21.50;67.50;;;;;;5116645;27;20833;-40
2021/07/04 07:14:35;;;;;;;4.57;4.18;;;21.50;67.60;;;;;;5116451;28;20038;-40
2021/07/04 07:17:01;;;;;;;4.97;4.40;;;21.50;67.60;;;;;;5117162;28;20031;-41
2021/07/04 07:19:27;;;;;;;4.22;3.78;;;21.50;67.60;;;;;;5116582;28;20052;-40
2021/07/04 07:21:54;;;;;;;4.32;3.92;;;21.50;67.60;;;;;;5117166;28;20380;-42
2021/07/04 07:24:20;;;;;;;4.65;4.25;;;21.50;67.50;;;;;;5117109;28;20020;-41
2021/07/04 07:26:46;;;;;;;4.75;4.25;;;21.50;67.60;;;;;;5121458;28;20027;-41
2021/07/04 07:29:12;;;;;;;5.05;4.50;;;21.50;67.70;;;;;;5121477;28;20080;-41
2021/07/04 07:31:38;;;;;;;4.65;4.25;;;21.50;67.70;;;;;;5123159;28;20031;-42
2021/07/04 07:34:05;;;;;;;4.63;4.22;;;21.50;67.90;;;;;;5123503;28;20496;-42
2021/07/04 07:36:31;;;;;;;4.63;4.15;;;21.50;68.00;;;;;;5123029;28;20035;-41
2021/07/04 07:38:57;;;;;;;4.47;4.07;;;21.50;68.00;;;;;;5122832;28;20027;-41
2021/07/04 07:41:24;;;;;;;5.03;4.55;;;21.40;67.90;;;;;;5123024;28;20023;-42
2021/07/04 07:43:50;;;;;;;4.78;4.38;;;21.50;68.00;;;;;;5122609;28;20031;-41
2021/07/04 07:46:16;;;;;;;4.53;4.13;;;21.40;68.00;;;;;;5122493;28;20123;-42
2021/07/04 07:48:43;;;;;;;5.33;4.83;;;21.40;68.00;;;;;;5121601;28;20473;-41
2021/07/04 07:51:09;;;;;;;4.73;4.17;;;21.40;67.80;;;;;;5123161;28;20039;-41
2021/07/04 07:53:35;;;;;;;4.93;4.43;;;21.40;68.00;;;;;;5123187;28;20028;-42
2021/07/04 07:56:02;;;;;;;4.53;4.13;;;21.40;67.90;;;;;;5122946;28;20096;-41
2021/07/04 07:58:28;;;;;;;4.97;4.35;;;21.40;68.00;;;;;;5122794;28;20073;-41
2021/07/04 08:00:54;;;;;;;4.60;3.97;;;21.40;68.10;;;;;;5121593;28;20035;-41
2021/07/04 08:03:20;;;;;;;4.55;4.15;;;21.40;68.20;;;;;;5123108;28;20034;-41
2021/07/04 08:05:46;;;;;;;4.57;4.18;;;21.30;68.10;;;;;;5120822;28;20402;-42
2021/07/04 08:08:12;;;;;;;5.05;4.55;;;21.30;68.20;;;;;;5122475;28;20028;-41
2021/07/04 08:10:38;;;;;;;5.82;4.93;;;21.30;68.20;;;;;;5122874;28;20036;-42
2021/07/04 08:13:05;;;;;;;4.68;4.28;;;21.30;68.20;;;;;;5122845;28;20032;-42
2021/07/04 08:15:31;;;;;;;4.60;4.20;;;21.30;68.50;;;;;;5118683;28;20061;-41
2021/07/04 08:17:57;;;;;;;5.00;4.60;;;21.30;68.40;;;;;;5120001;28;20043;-40
2021/07/04 08:20:23;;;;;;;5.00;4.50;;;21.30;68.40;;;;;;5120618;28;20090;-42
2021/07/04 08:22:49;;;;;;;5.20;4.68;;;21.30;68.50;;;;;;5119754;28;20032;-40
2021/07/04 08:25:16;;;;;;;5.47;4.97;;;21.30;69.40;;;;;;5119842;28;20106;-40
2021/07/04 08:27:42;;;;;;;5.10;4.60;;;21.30;68.70;;;;;;5120305;28;20023;-41
2021/07/04 08:30:10;;;;;;;4.97;4.50;;;21.20;68.60;;;;;;5119425;28;20068;-41
2021/07/04 08:32:36;;;;;;;5.57;5.07;;;21.20;68.60;;;;;;5119474;28;20058;-41
2021/07/04 08:35:04;;;;;;;5.32;4.65;;;21.30;68.70;;;;;;5120382;28;20074;-41
2021/07/04 08:37:30;;;;;;;5.20;4.70;;;21.20;68.60;;;;;;5120056;28;20028;-41
2021/07/04 08:39:56;;;;;;;5.63;4.95;;;21.20;68.70;;;;;;5118821;28;20039;-42
2021/07/04 08:42:23;;;;;;;5.63;5.03;;;21.20;69.00;;;;;;5120028;28;20027;-41
2021/07/04 08:44:50;;;;;;;5.40;4.90;;;21.20;68.70;;;;;;5120714;28;20028;-41
2021/07/04 08:47:19;;;;;;;5.32;4.82;;;21.20;68.80;;;;;;5126165;28;20024;-42
2021/07/04 08:49:46;;;;;;;5.85;5.30;;;21.20;68.90;;;;;;5126008;28;20039;-41
2021/07/04 08:52:12;;;;;;;5.75;5.03;;;21.20;68.90;;;;;;5125712;28;20122;-41
2021/07/04 08:54:39;;;;;;;5.43;4.93;;;21.20;68.90;;;;;;5106966;28;20020;-42
2021/07/04 08:57:09;;;;;;;5.57;5.00;;;21.10;69.10;;;;;;5105791;28;20024;-41
2021/07/04 08:59:39;;;;;;;5.35;4.85;;;21.10;69.00;;;;;;5105145;28;20053;-42
2021/07/04 09:02:06;;;;;;;5.45;4.95;;;21.10;69.20;;;;;;5105447;28;20591;-43
2021/07/04 09:04:32;;;;;;;5.70;5.10;;;21.20;69.10;;;;;;5105687;28;20040;-42
2021/07/04 09:07:00;;;;;;;5.60;5.10;;;21.10;69.20;;;;;;5117451;28;20032;-42
2021/07/04 09:09:28;;;;;;;6.07;5.20;;;21.10;69.10;;;;;;5123590;28;20020;-41
2021/07/04 09:12:06;;;;;;;5.63;5.07;;;21.10;69.20;;;;;;5125549;28;20036;-42
2021/07/04 09:14:38;;;;;;;5.93;5.35;;;21.10;69.30;;;;;;5125459;28;20016;-42
2021/07/04 09:17:06;;;;;;;5.70;5.20;;;21.10;69.40;;;;;;5118299;28;21466;-45
2021/07/04 09:19:33;;;;;;;5.55;5.05;;;21.10;69.40;;;;;;5118842;28;20032;-41
2021/07/04 09:22:04;;;;;;;6.43;5.82;;;21.10;69.30;;;;;;5118778;28;20028;-41
2021/07/04 09:24:33;;;;;;;6.03;5.38;;;21.10;69.40;;;;;;5116522;28;20048;-41
2021/07/04 09:26:59;;;;;;;5.93;5.32;;;21.10;69.40;;;;;;5118233;28;20023;-41
2021/07/04 09:29:46;;;;;;;6.13;5.53;;;21.10;69.40;;;;;;5118503;28;20039;-42
2021/07/04 09:32:20;;;;;;;6.30;5.22;;;21.00;69.50;;;;;;5117920;28;20507;-41
2021/07/04 09:34:55;;;;;;;6.68;5.80;;;21.10;69.40;;;;;;5118447;28;20024;-42
2021/07/04 09:37:36;;;;;;;6.57;5.70;;;21.00;69.60;;;;;;5116319;28;20016;-42
2021/07/04 09:40:13;;;;;;;5.85;5.28;;;21.00;69.60;;;;;;5117110;28;20030;-41
2021/07/04 09:42:56;;;;;;;5.97;5.38;;;21.00;69.60;;;;;;5118179;28;20024;-41
2021/07/04 09:45:23;;;;;;;5.88;5.38;;;21.00;69.60;;;;;;5120813;28;20070;-42
2021/07/04 09:47:57;;;;;;;6.10;5.50;;;21.00;69.70;;;;;;5125130;28;20020;-42
2021/07/04 09:50:24;;;;;;;6.80;5.43;;;21.00;69.70;;;;;;5124710;28;20099;-42
2021/07/04 09:53:00;;;;;;;6.50;5.90;;;21.00;69.70;;;;;;5123481;28;20511;-41
2021/07/04 09:55:27;;;;;;;6.60;5.95;;;21.00;69.90;;;;;;5123553;28;20385;-41
2021/07/04 09:57:58;;;;;;;5.97;5.38;;;20.90;69.90;;;;;;5124968;28;20048;-41
2021/07/04 10:00:28;;;;;;;6.82;6.13;;;20.90;69.80;;;;;;5124431;28;20032;-42
2021/07/04 10:03:09;;;;;;;6.55;5.95;;;21.00;70.00;;;;;;5124749;28;20052;-42
2021/07/04 10:05:36;;;;;;;7.78;6.32;;;20.90;69.80;;;;;;5124739;28;20708;-42
2021/07/04 10:08:17;;;;;;;6.15;5.57;;;20.90;70.00;;;;;;5124010;28;20028;-41
2021/07/04 10:10:44;;;;;;;6.97;6.30;;;20.90;69.90;;;;;;5123796;27;20579;-42
2021/07/04 10:13:10;;;;;;;7.32;6.20;;;20.90;69.90;;;;;;5124818;28;20051;-42
2021/07/04 10:15:36;;;;;;;6.78;6.10;;;20.90;69.90;;;;;;5124218;28;20035;-42
2021/07/04 10:18:03;;;;;;;6.75;6.13;;;20.90;70.00;;;;;;5124173;28;20047;-42
2021/07/04 10:20:29;;;;;;;5.85;5.25;;;20.90;70.00;;;;;;5122835;28;20023;-42
2021/07/04 10:22:55;;;;;;;7.05;6.35;;;20.90;70.00;;;;;;5122830;28;20027;-42
2021/07/04 10:25:21;;;;;;;7.03;6.32;;;20.90;70.10;;;;;;5105864;28;20019;-41
2021/07/04 10:27:48;;;;;;;5.93;5.43;;;20.90;70.10;;;;;;5124348;28;20030;-41
2021/07/04 10:30:14;;;;;;;7.00;5.93;;;20.90;70.10;;;;;;5122571;28;20096;-42
2021/07/04 10:33:03;;;;;;;5.95;5.35;;;20.90;70.10;;;;;;5124192;28;20039;-42
2021/07/04 10:35:30;;;;;;;6.95;6.25;;;20.90;70.20;;;;;;5114521;28;20028;-42
2021/07/04 10:38:12;;;;;;;7.10;6.50;;;20.80;70.10;;;;;;5103337;28;20028;-42
2021/07/04 10:40:39;;;;;;;6.80;6.10;;;20.80;70.90;;;;;;5101741;28;20016;-42
2021/07/04 10:43:05;;;;;;;5.10;4.60;;;20.80;70.30;;;;;;5103542;28;20024;-42
2021/07/04 10:45:36;;;;;;;6.50;5.95;;;20.80;70.20;;;;;;5111625;28;20047;-42
2021/07/04 10:48:24;;;;;;;6.47;5.88;;;20.80;70.30;;;;;;5124101;28;20024;-42
2021/07/04 10:51:10;;;;;;;7.25;6.55;;;20.80;70.30;;;;;;5123763;28;20032;-41
2021/07/04 10:53:54;;;;;;;6.38;5.63;;;20.80;70.20;;;;;;5123428;28;20023;-41
2021/07/04 10:56:46;;;;;;;7.18;6.40;;;20.80;70.40;;;;;;5123851;28;20063;-43
2021/07/04 10:59:18;;;;;;;6.57;5.97;;;20.80;70.30;;;;;;5120980;28;20094;-41
2021/07/04 11:01:52;;;;;;;6.90;6.20;;;20.80;70.40;;;;;;5123251;28;20043;-41
2021/07/04 11:04:28;;;;;;;6.63;6.00;;;20.80;70.40;;;;;;5123531;28;20080;-41
2021/07/04 11:06:56;;;;;;;6.90;6.20;;;20.80;70.30;;;;;;5122076;28;20043;-42
2021/07/04 11:09:22;;;;;;;6.32;5.72;;;20.80;70.40;;;;;;5122130;28;20685;-41
2021/07/04 11:11:49;;;;;;;6.68;6.05;;;20.80;70.50;;;;;;5123271;28;20053;-43
2021/07/04 11:14:15;;;;;;;6.82;5.78;;;20.70;70.50;;;;;;5122164;28;20088;-41
2021/07/04 11:17:03;;;;;;;6.65;5.95;;;20.70;70.60;;;;;;5122893;28;20032;-41
2021/07/04 11:19:29;;;;;;;6.68;5.97;;;20.80;70.60;;;;;;5121785;28;20055;-41
2021/07/04 11:21:58;;;;;;;6.40;5.80;;;20.70;70.50;;;;;;5123058;28;20042;-42
2021/07/04 11:24:28;;;;;;;6.35;5.75;;;20.70;70.80;;;;;;5123358;28;20038;-41
2021/07/04 11:27:20;;;;;;;6.45;5.80;;;20.70;70.70;;;;;;5121964;28;20138;-42
2021/07/04 11:30:21;;;;;;;6.85;6.25;;;20.70;70.80;;;;;;5123364;28;20550;-41
2021/07/04 11:32:47;;;;;;;6.28;5.68;;;20.70;70.70;;;;;;5110858;28;20572;-42
2021/07/04 11:35:13;;;;;;;6.60;5.93;;;20.70;70.80;;;;;;5121697;28;20038;-42
2021/07/04 11:37:40;;;;;;;6.55;5.68;;;20.70;70.90;;;;;;5122908;28;20084;-42
2021/07/04 11:40:07;;;;;;;6.93;6.22;;;20.70;70.70;;;;;;5123428;28;20412;-42
2021/07/04 11:42:33;;;;;;;6.20;5.60;;;20.70;70.80;;;;;;5123075;28;20032;-42
2021/07/04 11:44:59;;;;;;;6.00;5.30;;;20.70;70.80;;;;;;5123154;28;20024;-41
2021/07/04 11:47:25;;;;;;;6.82;5.97;;;20.70;71.00;;;;;;5122658;28;20039;-42
2021/07/04 11:49:51;;;;;;;6.43;5.82;;;20.70;70.90;;;;;;5123556;28;20027;-42
2021/07/04 11:52:20;;;;;;;6.53;5.90;;;20.70;70.90;;;;;;5126879;28;20064;-42
2021/07/04 11:54:47;;;;;;;6.95;6.25;;;20.70;71.00;;;;;;5127160;28;20487;-41
2021/07/04 11:57:30;;;;;;;6.05;5.45;;;20.70;71.00;;;;;;5127147;27;20031;-42
2021/07/04 12:00:01;;;;;;;6.30;5.70;;;20.70;71.00;;;;;;5127202;28;20020;-42
2021/07/04 12:02:28;;;;;;;6.40;5.70;;;20.70;71.00;;;;;;5124973;28;20091;-42
2021/07/04 12:04:54;;;;;;;6.33;5.73;;;20.70;71.10;;;;;;5125445;28;20038;-41
2021/07/04 12:07:24;;;;;;;6.85;5.95;;;20.70;71.10;;;;;;5125903;28;20059;-42
2021/07/04 12:09:51;;;;;;;6.40;5.80;;;20.70;71.10;;;;;;5126938;28;20080;-42
2021/07/04 12:12:22;;;;;;;6.10;5.60;;;20.60;71.00;;;;;;5126611;27;20539;-42
2021/07/04 12:14:50;;;;;;;6.65;5.95;;;20.60;71.20;;;;;;5126738;28;20051;-42
2021/07/04 12:17:28;;;;;;;6.38;5.78;;;20.60;71.30;;;;;;5124812;28;20862;-43
2021/07/04 12:20:00;;;;;;;;;;;20.60;71.30;;;;;;5126976;28;20039;-42
2021/07/04 12:22:50;;;;;;;6.60;5.93;;;20.60;71.10;;;;;;5126350;28;19910;-42
2021/07/04 12:25:43;;;;;;;6.80;6.18;;;20.60;71.10;;;;;;5121100;27;20035;-41
2021/07/04 12:28:16;;;;;;;5.97;5.38;;;20.60;71.50;;;;;;5126460;27;20087;-41
2021/07/04 12:30:50;;;;;;;6.03;5.45;;;20.70;71.50;;;;;;5126220;28;20039;-41
2021/07/04 12:33:17;;;;;;;6.68;6.07;;;20.60;71.40;;;;;;5126265;28;20644;-40
2021/07/04 12:35:43;;;;;;;6.18;5.57;;;20.60;71.30;;;;;;5124710;28;20027;-40
2021/07/04 12:38:36;;;;;;;5.80;5.25;;;20.70;71.40;;;;;;5126170;28;20138;-39
2021/07/04 12:41:13;;;;;;;5.90;5.40;;;20.70;71.30;;;;;;5124099;27;20031;-41
2021/07/04 12:43:41;;;;;;;6.80;6.18;;;20.70;71.30;;;;;;5126098;28;20016;-41
2021/07/04 12:46:24;;;;;;;6.38;5.78;;;20.70;71.30;;;;;;5125901;28;20400;-40
2021/07/04 12:48:51;;;;;;;6.00;5.40;;;20.70;71.60;;;;;;5126138;28;20043;-41
2021/07/04 12:51:33;;;;;;;6.13;5.53;;;20.70;71.40;;;;;;5125825;28;20040;-39
2021/07/04 12:54:00;;;;;;;5.93;5.15;;;20.70;71.20;;;;;;5125737;28;20051;-41